createdAt,value
2022-12-31T00:02:16.195Z,2.52
2022-12-31T00:04:42.528Z,2.36
2022-12-31T00:07:08.843Z,2.14
2022-12-31T00:09:35.158Z,1.96
2022-12-31T00:12:01.458Z,2.26
2022-12-31T00:14:27.774Z,2.25
2022-12-31T00:16:54.090Z,2.28
2022-12-31T00:19:20.413Z,2.34
2022-12-31T00:21:46.731Z,2.20
2022-12-31T00:24:13.054Z,2.22
2022-12-31T00:26:39.366Z,2.26
2022-12-31T00:29:05.696Z,2.30
2022-12-31T00:31:32.014Z,2.55
2022-12-31T00:33:58.322Z,2.37
2022-12-31T00:36:24.650Z,2.38
2022-12-31T00:38:50.947Z,2.62
2022-12-31T00:41:17.248Z,2.77
2022-12-31T00:43:43.616Z,3.42
2022-12-31T00:46:09.965Z,2.96
2022-12-31T00:48:36.298Z,3.07
2022-12-31T00:51:02.619Z,3.37
2022-12-31T00:53:28.931Z,3.04
2022-12-31T00:55:55.239Z,2.93
2022-12-31T00:58:21.559Z,2.82
2022-12-31T01:00:47.870Z,2.81
2022-12-31T01:03:14.228Z,2.84
2022-12-31T01:05:40.592Z,3.01
2022-12-31T01:08:06.914Z,3.03
2022-12-31T01:10:33.219Z,3.15
2022-12-31T01:12:59.533Z,2.90
2022-12-31T01:15:25.920Z,2.51
2022-12-31T01:17:52.239Z,2.53
2022-12-31T01:20:18.556Z,2.54
2022-12-31T01:22:44.864Z,2.67
2022-12-31T01:25:11.170Z,2.36
2022-12-31T01:27:37.483Z,2.21
2022-12-31T01:30:03.783Z,2.04
2022-12-31T01:32:30.099Z,2.30
2022-12-31T01:34:56.516Z,1.89
2022-12-31T01:37:22.815Z,1.86
2022-12-31T01:39:49.108Z,1.96
2022-12-31T01:42:15.423Z,1.88
2022-12-31T01:44:41.724Z,1.88
2022-12-31T01:47:08.027Z,1.59
2022-12-31T01:49:34.388Z,1.64
2022-12-31T01:52:00.698Z,1.50
2022-12-31T01:54:27.001Z,1.31
2022-12-31T01:56:53.345Z,1.46
2022-12-31T01:59:19.631Z,1.48
2022-12-31T02:01:45.984Z,1.61
2022-12-31T02:04:12.333Z,1.56
2022-12-31T02:06:38.639Z,1.96
2022-12-31T02:09:04.936Z,2.05
2022-12-31T02:11:31.270Z,2.09
2022-12-31T02:13:58.800Z,1.90
2022-12-31T02:16:25.268Z,2.11
2022-12-31T02:18:51.793Z,2.00
2022-12-31T02:21:18.091Z,2.03
2022-12-31T02:23:44.401Z,2.05
2022-12-31T02:26:10.738Z,1.87
2022-12-31T02:28:37.080Z,1.83
2022-12-31T02:31:03.424Z,1.79
2022-12-31T02:33:29.807Z,1.62
2022-12-31T02:35:56.111Z,1.80
2022-12-31T02:38:22.432Z,1.54
2022-12-31T02:40:48.770Z,1.72
2022-12-31T02:43:15.075Z,2.10
2022-12-31T02:45:41.374Z,1.81
2022-12-31T02:48:07.708Z,1.94
2022-12-31T02:50:34.002Z,2.05
2022-12-31T02:53:00.312Z,1.85
2022-12-31T02:55:26.673Z,1.82
2022-12-31T02:57:52.966Z,1.98
2022-12-31T03:00:19.267Z,1.98
2022-12-31T03:02:45.600Z,1.91
2022-12-31T03:05:11.920Z,1.90
2022-12-31T03:07:38.225Z,2.03
2022-12-31T03:10:04.562Z,1.91
2022-12-31T03:12:30.948Z,1.96
2022-12-31T03:14:57.255Z,1.86
2022-12-31T03:17:23.566Z,1.71
2022-12-31T03:19:49.873Z,1.78
2022-12-31T03:22:16.164Z,1.81
2022-12-31T03:24:42.545Z,1.66
2022-12-31T03:27:08.887Z,1.75
2022-12-31T03:29:35.184Z,1.77
2022-12-31T03:32:01.559Z,1.76
2022-12-31T03:34:27.867Z,1.96
2022-12-31T03:36:54.164Z,1.68
2022-12-31T03:39:20.481Z,1.76
2022-12-31T03:41:46.780Z,1.81
2022-12-31T03:44:13.089Z,1.79
2022-12-31T03:46:39.414Z,1.77
2022-12-31T03:49:05.716Z,1.66
2022-12-31T03:51:32.029Z,1.78
2022-12-31T03:53:58.343Z,1.63
2022-12-31T03:56:24.705Z,1.76
2022-12-31T03:58:51.001Z,1.74
2022-12-31T04:01:17.415Z,1.87
2022-12-31T04:03:43.801Z,1.88
2022-12-31T04:06:10.100Z,1.70
2022-12-31T04:08:39.236Z,1.89
2022-12-31T04:11:05.542Z,1.97
2022-12-31T04:13:31.844Z,1.71
2022-12-31T04:15:58.197Z,1.81
2022-12-31T04:18:24.503Z,1.79
2022-12-31T04:20:50.801Z,1.69
2022-12-31T04:23:17.146Z,1.54
2022-12-31T04:25:43.438Z,1.60
2022-12-31T04:28:09.741Z,1.49
2022-12-31T04:30:36.072Z,1.51
2022-12-31T04:33:02.377Z,1.44
2022-12-31T04:35:28.676Z,1.39
2022-12-31T04:37:55.018Z,1.36
2022-12-31T04:40:21.341Z,1.59
2022-12-31T04:42:47.648Z,1.50
2022-12-31T04:45:13.966Z,1.55
2022-12-31T04:47:40.282Z,1.38
2022-12-31T04:50:06.596Z,1.41
2022-12-31T04:52:38.601Z,1.54
2022-12-31T04:55:08.563Z,1.49
2022-12-31T04:57:34.904Z,1.42
2022-12-31T05:00:01.210Z,1.34
2022-12-31T05:02:27.620Z,1.33
2022-12-31T05:04:54.024Z,1.20
2022-12-31T05:07:20.333Z,1.20
2022-12-31T05:09:46.637Z,1.34
2022-12-31T05:12:12.953Z,1.21
2022-12-31T05:14:39.245Z,1.32
2022-12-31T05:17:05.549Z,1.28
2022-12-31T05:19:31.894Z,1.22
2022-12-31T05:21:58.192Z,1.31
2022-12-31T05:24:24.486Z,1.21
2022-12-31T05:26:50.814Z,1.24
2022-12-31T05:29:17.111Z,1.43
2022-12-31T05:31:43.432Z,1.27
2022-12-31T05:34:09.779Z,1.30
2022-12-31T05:36:36.106Z,1.22
2022-12-31T05:39:02.406Z,1.35
2022-12-31T05:41:28.723Z,1.27
2022-12-31T05:43:55.017Z,1.21
2022-12-31T05:46:21.376Z,1.39
2022-12-31T05:48:47.720Z,1.21
2022-12-31T05:51:14.015Z,1.38
2022-12-31T05:53:40.333Z,1.24
2022-12-31T05:56:06.684Z,1.20
2022-12-31T05:58:33.044Z,1.22
2022-12-31T06:00:59.438Z,1.15
2022-12-31T06:03:25.866Z,1.22
2022-12-31T06:05:52.212Z,1.14
2022-12-31T06:08:18.539Z,1.19
2022-12-31T06:10:44.932Z,1.34
2022-12-31T06:13:11.292Z,1.29
2022-12-31T06:15:37.653Z,1.06
2022-12-31T06:18:04.012Z,1.43
2022-12-31T06:20:30.367Z,1.34
2022-12-31T06:22:56.753Z,1.28
2022-12-31T06:25:24.252Z,1.32
2022-12-31T06:27:50.619Z,1.41
2022-12-31T06:30:16.952Z,1.52
2022-12-31T06:32:43.313Z,1.50
2022-12-31T06:35:09.672Z,1.20
2022-12-31T06:37:36.073Z,1.45
2022-12-31T06:40:02.509Z,1.37
2022-12-31T06:42:29.110Z,1.40
2022-12-31T06:44:55.461Z,1.40
2022-12-31T06:47:21.874Z,1.32
2022-12-31T06:49:48.229Z,1.24
2022-12-31T06:52:14.897Z,1.39
2022-12-31T06:54:41.287Z,1.39
2022-12-31T06:57:07.637Z,1.50
2022-12-31T06:59:33.959Z,1.33
2022-12-31T07:02:00.460Z,1.35
2022-12-31T07:04:26.905Z,1.74
2022-12-31T07:06:53.399Z,1.69
2022-12-31T07:09:19.826Z,1.72
2022-12-31T07:11:49.403Z,1.77
2022-12-31T07:14:15.774Z,1.70
2022-12-31T07:16:42.178Z,1.67
2022-12-31T07:19:08.539Z,1.69
2022-12-31T07:21:36.609Z,1.64
2022-12-31T07:24:03.036Z,1.37
2022-12-31T07:26:29.387Z,1.73
2022-12-31T07:28:56.983Z,1.89
2022-12-31T07:31:23.368Z,1.72
2022-12-31T07:33:49.743Z,1.64
2022-12-31T07:36:16.079Z,1.62
2022-12-31T07:38:42.433Z,1.85
2022-12-31T07:41:10.068Z,1.68
2022-12-31T07:43:36.685Z,1.51
2022-12-31T07:46:03.077Z,1.60
2022-12-31T07:48:29.430Z,1.60
2022-12-31T07:50:55.782Z,1.39
2022-12-31T07:53:22.168Z,1.50
2022-12-31T07:55:48.549Z,1.34
2022-12-31T07:58:14.928Z,1.41
2022-12-31T08:00:41.354Z,1.42
2022-12-31T08:03:07.723Z,1.51
2022-12-31T08:05:34.127Z,1.43
2022-12-31T08:08:02.276Z,1.37
2022-12-31T08:10:28.777Z,1.46
2022-12-31T08:12:55.135Z,1.35
2022-12-31T08:15:30.935Z,1.32
2022-12-31T08:17:57.326Z,1.39
2022-12-31T08:20:23.769Z,1.53
2022-12-31T08:22:50.120Z,1.40
2022-12-31T08:25:16.485Z,1.35
2022-12-31T08:27:42.871Z,1.32
2022-12-31T08:30:09.204Z,1.45
2022-12-31T08:32:35.565Z,1.24
2022-12-31T08:35:02.029Z,1.32
2022-12-31T08:37:28.388Z,1.35
2022-12-31T08:39:54.780Z,1.28
2022-12-31T08:42:22.582Z,1.29
2022-12-31T08:44:51.941Z,1.25
2022-12-31T08:47:23.781Z,1.32
2022-12-31T08:49:50.178Z,1.46
2022-12-31T08:52:16.583Z,1.41
2022-12-31T08:54:42.925Z,1.17
2022-12-31T08:57:18.434Z,1.22
2022-12-31T08:59:46.946Z,1.21
2022-12-31T09:02:13.480Z,1.40
2022-12-31T09:05:02.826Z,1.34
2022-12-31T09:07:31.431Z,1.41
2022-12-31T09:10:00.832Z,1.26
2022-12-31T09:12:33.971Z,1.31
2022-12-31T09:15:07.103Z,1.33
2022-12-31T09:17:33.715Z,1.45
2022-12-31T09:20:22.610Z,1.36
2022-12-31T09:23:01.573Z,1.36
2022-12-31T09:25:29.132Z,1.25
2022-12-31T09:28:02.714Z,1.36
